createdAt,value
2024-02-02T00:01:50.325Z,-17.05
2024-02-02T00:04:20.816Z,-16.76
2024-02-02T00:06:51.411Z,-16.54
2024-02-02T00:09:21.971Z,-16.26
2024-02-02T00:11:54.148Z,-16.04
2024-02-02T00:14:24.719Z,-15.93
2024-02-02T00:16:55.533Z,-15.92
2024-02-02T00:19:26.142Z,-15.83
2024-02-02T00:21:56.761Z,-15.74
2024-02-02T00:24:27.388Z,-15.94
2024-02-02T00:26:59.732Z,-16.16
2024-02-02T00:29:30.357Z,-16.89
2024-02-02T00:32:00.979Z,-17.04
2024-02-02T00:34:31.718Z,-17.23
2024-02-02T00:37:02.321Z,-17.30
2024-02-02T00:39:33.258Z,-17.26
2024-02-02T00:42:05.726Z,-17.40
2024-02-02T00:44:36.303Z,-17.15
2024-02-02T00:47:06.864Z,-16.65
2024-02-02T00:49:37.450Z,-16.38
2024-02-02T00:52:08.430Z,-16.08
2024-02-02T00:54:39.000Z,-15.75
2024-02-02T00:57:11.171Z,-15.73
2024-02-02T00:59:41.797Z,-15.66
2024-02-02T01:02:12.245Z,-15.46
2024-02-02T01:04:57.860Z,-15.29
2024-02-02T01:07:28.531Z,-15.07
2024-02-02T01:09:59.059Z,-14.93
2024-02-02T01:12:31.302Z,-14.83
2024-02-02T01:15:01.942Z,-14.64
2024-02-02T01:17:33.296Z,-14.45
2024-02-02T01:20:05.992Z,-14.18
2024-02-02T01:22:36.788Z,-13.80
2024-02-02T01:25:08.032Z,-13.58
2024-02-02T01:27:40.773Z,-13.37
2024-02-02T01:30:13.869Z,-13.21
2024-02-02T01:32:44.655Z,-13.30
2024-02-02T01:35:15.204Z,-13.53
2024-02-02T01:37:45.785Z,-13.66
2024-02-02T01:40:16.985Z,-13.98
2024-02-02T01:42:49.357Z,-14.15
2024-02-02T01:45:19.994Z,-14.26
2024-02-02T01:47:50.586Z,-14.39
2024-02-02T01:50:21.188Z,-14.47
2024-02-02T01:52:51.856Z,-14.47
2024-02-02T01:55:22.423Z,-14.44
2024-02-02T01:57:54.765Z,-14.45
2024-02-02T02:00:25.554Z,-14.34
2024-02-02T02:02:56.254Z,-14.22
2024-02-02T02:05:26.938Z,-14.19
2024-02-02T02:07:58.033Z,-14.01
2024-02-02T02:10:28.697Z,-13.95
2024-02-02T02:13:01.019Z,-13.87
2024-02-02T02:15:31.813Z,-13.69
2024-02-02T02:18:02.492Z,-13.49
2024-02-02T02:20:34.031Z,-13.54
2024-02-02T02:23:06.404Z,-13.35
2024-02-02T02:25:36.902Z,-13.31
2024-02-02T02:28:07.863Z,-13.31
2024-02-02T02:30:38.506Z,-13.47
2024-02-02T02:33:09.347Z,-13.58
2024-02-02T02:35:40.112Z,-13.51
2024-02-02T02:38:12.236Z,-13.74
2024-02-02T02:40:42.749Z,-13.30
2024-02-02T02:43:13.297Z,-13.31
2024-02-02T02:45:43.820Z,-13.35
2024-02-02T02:48:14.525Z,-13.54
2024-02-02T02:50:45.172Z,-13.68
2024-02-02T02:53:17.512Z,-13.59
2024-02-02T02:55:48.031Z,-13.51
2024-02-02T02:58:18.616Z,-13.48
2024-02-02T03:00:49.472Z,-13.57
2024-02-02T03:03:20.105Z,-13.62
2024-02-02T03:05:50.833Z,-13.64
2024-02-02T03:08:23.090Z,-13.47
2024-02-02T03:10:53.569Z,-13.36
2024-02-02T03:13:24.114Z,-13.29
2024-02-02T03:15:54.656Z,-13.45
2024-02-02T03:18:25.496Z,-13.42
2024-02-02T03:20:56.179Z,-13.53
2024-02-02T03:23:28.479Z,-13.51
2024-02-02T03:25:59.091Z,-13.50
2024-02-02T03:28:29.661Z,-13.48
2024-02-02T03:31:00.271Z,-13.43
2024-02-02T03:33:30.931Z,-13.40
2024-02-02T03:36:01.627Z,-13.51
2024-02-02T03:38:33.821Z,-13.53
2024-02-02T03:41:04.372Z,-13.45
2024-02-02T03:43:34.882Z,-13.38
2024-02-02T03:46:05.443Z,-13.35
2024-02-02T03:48:36.109Z,-13.29
2024-02-02T03:51:06.935Z,-13.26
2024-02-02T03:53:39.148Z,-13.12
2024-02-02T03:56:09.934Z,-12.94
2024-02-02T03:58:40.404Z,-12.81
2024-02-02T04:01:10.942Z,-12.85
2024-02-02T04:03:41.602Z,-12.91
2024-02-02T04:06:12.218Z,-12.97
2024-02-02T04:08:44.528Z,-13.00
2024-02-02T04:11:15.164Z,-13.00
2024-02-02T04:13:45.737Z,-13.09
2024-02-02T04:16:16.279Z,-13.15
2024-02-02T04:18:46.903Z,-13.15
2024-02-02T04:21:17.515Z,-13.09
2024-02-02T04:23:49.906Z,-13.05
2024-02-02T04:26:20.500Z,-13.14
2024-02-02T04:28:51.319Z,-13.16
2024-02-02T04:31:21.879Z,-13.06
2024-02-02T04:33:52.661Z,-12.96
2024-02-02T04:36:23.308Z,-12.96
2024-02-02T04:38:55.524Z,-13.10
2024-02-02T04:41:26.145Z,-13.13
2024-02-02T04:43:56.718Z,-13.14
2024-02-02T04:46:27.907Z,-13.00
2024-02-02T04:48:58.732Z,-12.99
2024-02-02T04:51:29.467Z,-13.15
2024-02-02T04:54:01.758Z,-13.32
2024-02-02T04:56:32.337Z,-13.41
2024-02-02T04:59:02.925Z,-13.49
2024-02-02T05:01:33.518Z,-13.45
2024-02-02T05:04:04.106Z,-13.60
2024-02-02T05:06:34.844Z,-13.62
2024-02-02T05:09:07.469Z,-13.74
2024-02-02T05:11:38.002Z,-13.97
2024-02-02T05:14:08.860Z,-13.80
2024-02-02T05:16:39.469Z,-13.80
2024-02-02T05:19:10.147Z,-14.04
2024-02-02T05:21:40.848Z,-13.61
2024-02-02T05:24:26.212Z,-13.39
2024-02-02T05:27:03.834Z,-13.32
2024-02-02T05:29:34.878Z,-13.51
2024-02-02T05:32:05.426Z,-13.33
2024-02-02T05:34:36.186Z,-13.28
2024-02-02T05:37:06.927Z,-13.40
2024-02-02T05:39:39.126Z,-13.49
2024-02-02T05:42:10.151Z,-13.91
2024-02-02T05:44:40.673Z,-13.54
2024-02-02T05:47:11.186Z,-13.45
2024-02-02T05:49:41.971Z,-13.35
2024-02-02T05:52:12.837Z,-13.30
2024-02-02T05:54:45.102Z,-13.23
2024-02-02T05:57:15.689Z,-13.20
2024-02-02T05:59:46.246Z,-13.09
2024-02-02T06:02:16.785Z,-13.02
2024-02-02T06:04:47.386Z,-13.06
2024-02-02T06:07:18.208Z,-13.07
2024-02-02T06:09:50.613Z,-13.13
2024-02-02T06:12:21.223Z,-13.10
2024-02-02T06:14:51.924Z,-13.09
2024-02-02T06:17:22.474Z,-13.23
2024-02-02T06:19:53.166Z,-13.32
2024-02-02T06:22:23.875Z,-13.33
2024-02-02T06:24:56.119Z,-13.34
2024-02-02T06:27:27.361Z,-13.40
2024-02-02T06:29:57.957Z,-13.58
2024-02-02T06:32:28.532Z,-13.66
2024-02-02T06:35:01.060Z,-13.75
2024-02-02T06:37:31.948Z,-13.99
2024-02-02T06:40:06.001Z,-14.27
2024-02-02T06:42:36.626Z,-14.52
2024-02-02T06:45:07.887Z,-14.69
2024-02-02T06:47:39.338Z,-14.79
2024-02-02T06:50:10.436Z,-14.84
2024-02-02T06:52:41.011Z,-14.89
2024-02-02T06:55:13.667Z,-14.85
2024-02-02T06:57:45.959Z,-14.92
2024-02-02T07:00:19.529Z,-15.00
2024-02-02T07:02:50.879Z,-15.01
2024-02-02T07:05:22.121Z,-15.06
2024-02-02T07:07:53.611Z,-15.32
2024-02-02T07:10:25.835Z,-15.38
2024-02-02T07:13:03.755Z,-15.52
2024-02-02T07:15:40.420Z,-15.59
2024-02-02T07:18:36.325Z,-15.74
2024-02-02T07:21:08.962Z,-16.18
2024-02-02T07:23:41.551Z,-16.77
2024-02-02T07:26:30.272Z,-16.01
2024-02-02T07:29:02.449Z,-15.95
2024-02-02T07:31:40.370Z,-16.14
2024-02-02T07:34:42.167Z,-16.57
2024-02-02T07:37:14.617Z,-16.39
2024-02-02T07:39:45.157Z,-16.56
2024-02-02T07:42:17.355Z,-16.78
2024-02-02T07:44:47.962Z,-16.91
2024-02-02T07:47:18.502Z,-17.04
2024-02-02T07:49:49.092Z,-17.05
2024-02-02T07:52:19.642Z,-17.04
2024-02-02T07:54:50.157Z,-17.25
2024-02-02T07:57:22.285Z,-17.29
2024-02-02T07:59:52.928Z,-17.21
2024-02-02T08:02:24.686Z,-17.28
2024-02-02T08:04:55.358Z,-17.60
2024-02-02T08:07:26.163Z,-17.32
2024-02-02T08:09:56.752Z,-17.60
2024-02-02T08:12:29.086Z,-17.70
2024-02-02T08:14:59.718Z,-17.56
2024-02-02T08:17:30.357Z,-17.59
2024-02-02T08:20:01.060Z,-17.70
2024-02-02T08:22:31.672Z,-17.81
2024-02-02T08:25:02.201Z,-18.04
2024-02-02T08:27:34.350Z,-18.15
2024-02-02T08:30:05.266Z,-18.28
2024-02-02T08:32:36.069Z,-18.27
2024-02-02T08:35:06.971Z,-18.17
2024-02-02T08:37:37.930Z,-17.88
2024-02-02T08:40:24.430Z,-17.89
2024-02-02T08:42:56.659Z,-17.60
2024-02-02T08:46:15.364Z,-17.05
2024-02-02T08:48:48.373Z,-16.76
2024-02-02T08:51:54.769Z,-16.50
2024-02-02T08:54:49.919Z,-16.52
2024-02-02T08:58:00.839Z,-16.27
2024-02-02T09:00:46.064Z,-16.23
2024-02-02T09:03:29.359Z,-16.16
2024-02-02T09:06:01.339Z,-16.83
2024-02-02T09:08:39.853Z,-16.13
2024-02-02T09:11:26.158Z,-16.10
2024-02-02T09:14:06.215Z,-16.41
2024-02-02T09:16:46.413Z,-16.05
2024-02-02T09:19:34.836Z,-16.01
2024-02-02T09:22:11.633Z,-16.01
2024-02-02T09:24:46.346Z,-16.04
2024-02-02T09:27:19.003Z,-16.08
2024-02-02T09:29:51.527Z,-16.08
2024-02-02T09:32:24.165Z,-16.08
2024-02-02T09:34:55.351Z,-16.08
2024-02-02T09:37:35.394Z,-16.16
2024-02-02T09:40:15.998Z,-16.08
2024-02-02T09:43:08.341Z,-16.11
2024-02-02T09:45:58.464Z,-16.21
2024-02-02T09:48:48.066Z,-16.19
2024-02-02T09:51:31.047Z,-16.25
2024-02-02T09:54:25.336Z,-16.47
2024-02-02T09:57:06.291Z,-16.41
2024-02-02T09:59:52.841Z,-16.43
2024-02-02T10:02:56.522Z,-16.58
2024-02-02T10:05:40.965Z,-16.52
2024-02-02T10:08:25.878Z,-16.53
2024-02-02T10:11:15.451Z,-16.50
2024-02-02T10:14:02.083Z,-16.57
2024-02-02T10:16:42.307Z,-16.50
2024-02-02T10:19:35.654Z,-16.47
2024-02-02T10:22:22.354Z,-16.43
2024-02-02T10:25:15.648Z,-16.31
2024-02-02T10:28:03.143Z,-16.25
2024-02-02T10:30:47.392Z,-16.17
2024-02-02T10:33:41.221Z,-16.16
2024-02-02T10:36:21.767Z,-16.24
2024-02-02T10:39:14.350Z,-16.38
2024-02-02T10:42:00.933Z,-16.54
2024-02-02T10:44:42.287Z,-16.64
2024-02-02T10:47:25.838Z,-16.63
2024-02-02T10:50:09.724Z,-16.56
2024-02-02T10:52:50.079Z,-16.55
2024-02-02T10:55:38.892Z,-16.57
2024-02-02T10:58:24.959Z,-16.66
2024-02-02T11:01:06.963Z,-16.84
2024-02-02T11:03:43.170Z,-17.05
2024-02-02T11:06:24.913Z,-17.26
2024-02-02T11:09:00.409Z,-17.35
2024-02-02T11:11:37.610Z,-17.40
2024-02-02T11:14:19.041Z,-17.37
2024-02-02T11:17:02.845Z,-17.28
2024-02-02T11:19:49.204Z,-17.19
2024-02-02T11:22:29.336Z,-17.18
2024-02-02T11:25:17.926Z,-17.34
2024-02-02T11:28:01.113Z,-17.51
2024-02-02T11:30:46.891Z,-17.61
2024-02-02T11:33:30.808Z,-17.66
2024-02-02T11:36:14.306Z,-17.69
2024-02-02T11:38:59.153Z,-18.08
2024-02-02T11:41:34.301Z,-17.81
2024-02-02T11:44:06.737Z,-17.79
2024-02-02T11:46:39.167Z,-17.96
2024-02-02T11:49:13.719Z,-18.14
2024-02-02T11:51:56.180Z,-18.33
2024-02-02T11:54:34.969Z,-18.58
2024-02-02T11:57:08.226Z,-19.07
2024-02-02T11:59:45.444Z,-18.74
2024-02-02T12:02:36.865Z,-18.74
2024-02-02T12:05:17.357Z,-18.79
2024-02-02T12:07:56.619Z,-18.74
2024-02-02T12:10:30.904Z,-18.84
2024-02-02T12:13:06.375Z,-18.58
2024-02-02T12:15:38.835Z,-18.56
2024-02-02T12:18:10.610Z,-18.52
2024-02-02T12:20:42.096Z,-18.54
2024-02-02T12:23:12.746Z,-18.64
2024-02-02T12:25:43.522Z,-18.73
2024-02-02T12:28:14.403Z,-18.59
2024-02-02T12:30:46.590Z,-18.50
2024-02-02T12:33:17.309Z,-18.32
2024-02-02T12:35:49.936Z,-18.11
2024-02-02T12:38:25.186Z,-17.96
2024-02-02T12:40:55.830Z,-17.91
2024-02-02T12:43:31.035Z,-17.64
2024-02-02T12:46:03.239Z,-17.53
2024-02-02T12:48:34.014Z,-17.46
2024-02-02T12:51:04.664Z,-17.31
2024-02-02T12:53:35.202Z,-17.17
2024-02-02T12:56:05.791Z,-17.05
2024-02-02T12:58:36.572Z,-16.98
2024-02-02T13:01:09.200Z,-16.85
2024-02-02T13:03:44.296Z,-16.59
2024-02-02T13:06:16.329Z,-16.55
2024-02-02T13:08:48.367Z,-16.70
2024-02-02T13:11:25.877Z,-16.92
2024-02-02T13:14:07.025Z,-16.88
2024-02-02T13:16:39.927Z,-17.42
2024-02-02T13:19:34.529Z,-16.61
2024-02-02T13:22:05.190Z,-16.57
2024-02-02T13:24:47.005Z,-16.89
2024-02-02T13:27:21.890Z,-16.88
2024-02-02T13:29:54.537Z,-17.07
2024-02-02T13:32:29.155Z,-16.85
2024-02-02T13:35:02.610Z,-17.01
2024-02-02T13:37:38.450Z,-17.10
2024-02-02T13:40:11.703Z,-17.06
2024-02-02T13:42:43.442Z,-17.23
2024-02-02T13:45:17.257Z,-17.30
2024-02-02T13:48:02.056Z,-17.48
2024-02-02T13:50:42.428Z,-18.32
2024-02-02T13:53:12.927Z,-17.55
2024-02-02T13:55:43.773Z,-17.60
2024-02-02T13:58:15.522Z,-17.90
2024-02-02T14:00:47.316Z,-17.91
2024-02-02T14:03:23.323Z,-17.77
2024-02-02T14:05:53.795Z,-17.97
2024-02-02T14:08:24.317Z,-17.90
2024-02-02T14:10:54.837Z,-17.87
2024-02-02T14:13:25.441Z,-17.94
2024-02-02T14:15:57.351Z,-17.99
2024-02-02T14:18:31.139Z,-18.05
2024-02-02T14:21:11.913Z,-18.11
2024-02-02T14:23:42.482Z,-18.17
2024-02-02T14:26:13.350Z,-18.21
2024-02-02T14:28:44.182Z,-18.41
2024-02-02T14:31:14.748Z,-18.59
2024-02-02T14:33:46.898Z,-18.88
2024-02-02T14:36:17.550Z,-19.02
2024-02-02T14:38:49.430Z,-19.15
2024-02-02T14:41:20.226Z,-19.30
2024-02-02T14:43:50.721Z,-19.24
2024-02-02T14:46:22.989Z,-19.39
2024-02-02T14:48:55.177Z,-19.50
2024-02-02T14:51:25.625Z,-19.55
2024-02-02T14:53:56.180Z,-19.72
2024-02-02T14:56:26.894Z,-19.72
2024-02-02T14:59:03.289Z,-19.90
2024-02-02T15:01:33.921Z,-20.16
2024-02-02T15:04:06.226Z,-20.42
2024-02-02T15:06:38.744Z,-20.76
2024-02-02T15:09:14.751Z,-20.51
2024-02-02T15:11:46.238Z,-20.66
2024-02-02T15:14:17.150Z,-20.19
2024-02-02T15:16:47.722Z,-20.05
2024-02-02T15:19:20.097Z,-19.93
2024-02-02T15:21:53.464Z,-20.03
2024-02-02T15:24:24.234Z,-20.00
2024-02-02T15:26:54.773Z,-20.11
2024-02-02T15:29:25.810Z,-20.19
2024-02-02T15:31:56.216Z,-20.40
2024-02-02T15:34:28.849Z,-21.09
2024-02-02T15:36:59.661Z,-20.21
2024-02-02T15:39:37.454Z,-20.26
2024-02-02T15:42:09.639Z,-20.42
2024-02-02T15:44:40.978Z,-20.29
2024-02-02T15:47:11.560Z,-20.12
2024-02-02T15:49:44.155Z,-19.99
2024-02-02T15:52:14.794Z,-19.83
2024-02-02T15:54:46.092Z,-19.75
2024-02-02T15:57:17.035Z,-19.88
2024-02-02T15:59:47.595Z,-20.05
2024-02-02T16:02:18.207Z,-20.09
2024-02-02T16:04:50.412Z,-20.07
2024-02-02T16:07:21.146Z,-19.88
2024-02-02T16:09:51.706Z,-19.84
2024-02-02T16:12:22.270Z,-19.71
2024-02-02T16:14:52.857Z,-19.72
2024-02-02T16:17:23.389Z,-19.92
2024-02-02T16:19:56.673Z,-20.04
2024-02-02T16:22:27.470Z,-19.99
2024-02-02T16:24:58.005Z,-20.03
2024-02-02T16:27:28.524Z,-20.08
2024-02-02T16:29:59.322Z,-19.97
2024-02-02T16:32:29.915Z,-19.96
2024-02-02T16:35:05.118Z,-19.89
2024-02-02T16:37:35.657Z,-19.92
2024-02-02T16:40:06.290Z,-20.05
2024-02-02T16:42:36.970Z,-20.16
2024-02-02T16:45:08.664Z,-20.08
2024-02-02T16:47:39.511Z,-19.93
2024-02-02T16:50:12.463Z,-19.67
2024-02-02T16:52:43.499Z,-19.54
2024-02-02T16:55:14.053Z,-19.46
2024-02-02T16:57:44.669Z,-19.38
2024-02-02T17:00:16.086Z,-19.01
2024-02-02T17:02:47.080Z,-18.76
2024-02-02T17:05:19.345Z,-18.63
2024-02-02T17:07:50.166Z,-18.43
2024-02-02T17:10:20.730Z,-18.16
2024-02-02T17:12:51.307Z,-17.97
2024-02-02T17:15:21.984Z,-17.71
2024-02-02T17:17:52.635Z,-17.63
2024-02-02T17:20:26.973Z,-17.61
2024-02-02T17:22:57.590Z,-17.53
2024-02-02T17:25:28.157Z,-17.47
2024-02-02T17:27:58.705Z,-17.38
2024-02-02T17:30:29.237Z,-17.30
2024-02-02T17:33:00.095Z,-17.54
2024-02-02T17:35:37.961Z,-17.34
2024-02-02T17:38:16.082Z,-17.27
2024-02-02T17:40:48.136Z,-17.15
2024-02-02T17:43:19.016Z,-17.12
2024-02-02T17:45:49.958Z,-16.88
2024-02-02T17:48:20.769Z,-16.74
2024-02-02T17:50:53.310Z,-16.72
2024-02-02T17:53:23.822Z,-16.69
2024-02-02T17:55:54.290Z,-17.06
2024-02-02T17:58:24.754Z,-16.61
2024-02-02T18:00:55.273Z,-16.59
2024-02-02T18:03:26.082Z,-16.87
2024-02-02T18:05:58.239Z,-16.94
2024-02-02T18:08:30.327Z,-16.75
2024-02-02T18:11:00.973Z,-16.66
2024-02-02T18:13:31.544Z,-16.65
2024-02-02T18:16:02.072Z,-16.47
2024-02-02T18:18:32.784Z,-16.46
2024-02-02T18:21:04.952Z,-16.75
2024-02-02T18:23:36.673Z,-16.93
2024-02-02T18:26:07.639Z,-16.92
2024-02-02T18:28:38.528Z,-16.79
2024-02-02T18:31:09.100Z,-16.58
2024-02-02T18:33:40.671Z,-16.45
2024-02-02T18:36:13.166Z,-16.36
2024-02-02T18:38:43.739Z,-16.31
2024-02-02T18:41:14.177Z,-16.21
2024-02-02T18:43:44.642Z,-16.09
2024-02-02T18:46:15.087Z,-16.13
2024-02-02T18:48:45.646Z,-16.33
2024-02-02T18:51:20.888Z,-16.53
2024-02-02T18:53:51.550Z,-16.60
2024-02-02T18:56:21.999Z,-16.64
2024-02-02T18:58:52.573Z,-16.74
2024-02-02T19:01:27.045Z,-16.67
2024-02-02T19:03:57.758Z,-16.60
2024-02-02T19:06:29.999Z,-16.42
2024-02-02T19:09:00.603Z,-16.31
2024-02-02T19:11:31.182Z,-16.31
2024-02-02T19:14:01.786Z,-16.43
2024-02-02T19:16:32.383Z,-16.47
2024-02-02T19:19:02.877Z,-16.64
2024-02-02T19:21:36.373Z,-16.74
2024-02-02T19:24:07.686Z,-16.59
2024-02-02T19:26:38.306Z,-16.57
2024-02-02T19:29:08.893Z,-16.53
2024-02-02T19:31:40.971Z,-16.66
2024-02-02T19:34:11.755Z,-16.37
2024-02-02T19:36:43.934Z,-16.34
2024-02-02T19:39:14.621Z,-16.49
2024-02-02T19:41:45.629Z,-16.69
2024-02-02T19:44:16.118Z,-16.75
2024-02-02T19:46:46.662Z,-16.99
2024-02-02T19:49:17.424Z,-17.18
2024-02-02T19:51:49.931Z,-17.30
2024-02-02T19:54:20.749Z,-17.54
2024-02-02T19:56:51.220Z,-17.86
2024-02-02T19:59:21.764Z,-17.92
2024-02-02T20:01:52.324Z,-17.87
2024-02-02T20:04:22.911Z,-17.90
2024-02-02T20:06:55.050Z,-18.03
2024-02-02T20:09:25.770Z,-18.28
2024-02-02T20:11:56.896Z,-18.54
2024-02-02T20:14:27.464Z,-18.81
2024-02-02T20:16:57.919Z,-19.06
2024-02-02T20:19:28.570Z,-19.34
2024-02-02T20:22:00.835Z,-19.61
2024-02-02T20:24:31.324Z,-19.79
2024-02-02T20:27:01.907Z,-20.23
2024-02-02T20:29:32.500Z,-20.05
2024-02-02T20:32:04.503Z,-19.84
2024-02-02T20:34:35.547Z,-19.80
2024-02-02T20:37:08.050Z,-19.84
2024-02-02T20:39:40.336Z,-19.90
2024-02-02T20:42:11.173Z,-19.91
2024-02-02T20:44:44.859Z,-20.08
2024-02-02T20:47:15.835Z,-20.07
2024-02-02T20:49:48.308Z,-20.31
2024-02-02T20:52:21.464Z,-20.60
2024-02-02T20:54:52.213Z,-20.67
2024-02-02T20:57:22.765Z,-20.52
2024-02-02T20:59:55.105Z,-20.32
2024-02-02T21:02:25.688Z,-20.52
2024-02-02T21:04:56.225Z,-20.28
2024-02-02T21:07:28.491Z,-20.12
2024-02-02T21:09:59.080Z,-20.12
2024-02-02T21:12:31.198Z,-20.33
2024-02-02T21:15:01.926Z,-20.32
2024-02-02T21:17:34.006Z,-20.16
2024-02-02T21:20:05.034Z,-20.34
2024-02-02T21:22:39.596Z,-20.48
2024-02-02T21:25:11.203Z,-20.49
2024-02-02T21:27:41.698Z,-20.27
2024-02-02T21:30:13.077Z,-20.15
2024-02-02T21:32:43.731Z,-20.18
2024-02-02T21:35:14.556Z,-20.51
2024-02-02T21:37:46.781Z,-20.35
2024-02-02T21:40:17.371Z,-20.46
2024-02-02T21:42:47.875Z,-20.28
2024-02-02T21:45:18.605Z,-20.22
2024-02-02T21:47:49.361Z,-20.17
2024-02-02T21:50:20.522Z,-20.06
2024-02-02T21:52:52.876Z,-20.32
2024-02-02T21:55:23.326Z,-20.67
2024-02-02T21:57:53.915Z,-20.73
2024-02-02T22:00:24.972Z,-20.56
2024-02-02T22:02:55.480Z,-20.55
2024-02-02T22:05:26.950Z,-20.62
2024-02-02T22:07:59.112Z,-20.51
2024-02-02T22:10:29.567Z,-20.69
2024-02-02T22:13:00.145Z,-21.04
2024-02-02T22:15:30.713Z,-21.12
2024-02-02T22:18:01.277Z,-20.93
2024-02-02T22:20:31.824Z,-21.19
2024-02-02T22:23:04.005Z,-21.33
2024-02-02T22:25:34.420Z,-21.26
2024-02-02T22:28:07.253Z,-20.68
2024-02-02T22:30:38.140Z,-20.53
2024-02-02T22:33:09.022Z,-20.76
2024-02-02T22:35:39.474Z,-20.87
2024-02-02T22:38:11.651Z,-21.00
2024-02-02T22:40:42.070Z,-20.79
2024-02-02T22:43:12.588Z,-20.78
2024-02-02T22:45:43.528Z,-20.94
2024-02-02T22:48:14.180Z,-20.85
2024-02-02T22:50:44.639Z,-20.62
2024-02-02T22:53:16.764Z,-20.52
2024-02-02T22:55:47.213Z,-20.31
2024-02-02T22:58:17.929Z,-19.97
2024-02-02T23:00:49.874Z,-19.78
2024-02-02T23:03:20.468Z,-19.63
2024-02-02T23:05:51.488Z,-19.34
2024-02-02T23:08:23.666Z,-19.19
2024-02-02T23:10:54.284Z,-19.08
2024-02-02T23:13:25.153Z,-18.74
2024-02-02T23:15:57.774Z,-18.81
2024-02-02T23:18:28.449Z,-19.12
2024-02-02T23:21:05.795Z,-19.16
2024-02-02T23:23:38.509Z,-18.91
2024-02-02T23:26:09.280Z,-19.40
2024-02-02T23:28:40.969Z,-18.24
2024-02-02T23:31:11.449Z,-18.16
2024-02-02T23:33:43.691Z,-18.23
2024-02-02T23:36:14.867Z,-18.37
2024-02-02T23:38:47.255Z,-18.29
2024-02-02T23:41:19.080Z,-17.75
2024-02-02T23:43:49.567Z,-17.87
2024-02-02T23:46:20.142Z,-17.95
2024-02-02T23:48:51.468Z,-17.58
2024-02-02T23:51:22.033Z,-17.05
2024-02-02T23:53:54.158Z,-16.64
2024-02-02T23:56:24.813Z,-16.60
2024-02-02T23:58:55.336Z,-16.50
